Time;durP1;ratioP1;P1;durP2;ratioP2;P2;SDS_P1;SDS_P2;PMS_P1;PMS_P2;Temp;Humidity;BMP_temperature;BMP_pressure;BME280_temperature;BME280_humidity;BME280_pressure;Samples;Min_cycle;Max_cycle;Signal;HPM_P1;HPM_P2
2022/05/19 00:03:35;;;;;;;;;;;;;;;18.44;100.00;101725.81;10417838;28;19928;-68
2022/05/19 00:08:37;;;;;;;;;;;;;;;18.46;100.00;101708.84;10419819;28;19921;-68
2022/05/19 00:13:40;;;;;;;;;;;;;;;18.06;100.00;101714.50;10418283;28;19921;-69
2022/05/19 00:18:42;;;;;;;;;;;;;;;18.25;100.00;101713.13;10418231;28;19921;-68
2022/05/19 00:23:44;;;;;;;;;;;;;;;17.97;100.00;101708.09;10419001;28;19928;-68
2022/05/19 00:28:46;;;;;;;;;;;;;;;17.90;100.00;101713.94;10418735;28;19925;-68
2022/05/19 00:33:48;;;;;;;;;;;;;;;18.11;100.00;101699.09;10418548;28;19928;-69
2022/05/19 00:38:51;;;;;;;;;;;;;;;17.90;100.00;101700.69;10418406;28;19925;-69
2022/05/19 00:44:03;;;;;;;;;;;;;;;18.03;100.00;101698.81;10417403;28;19925;-69
2022/05/19 00:49:10;;;;;;;;;;;;;;;17.93;100.00;101684.56;10416093;28;20324;-69
2022/05/19 00:54:15;;;;;;;;;;;;;;;17.82;100.00;101682.69;10417744;28;19941;-68
2022/05/19 00:59:31;;;;;;;;;;;;;;;17.79;100.00;101675.81;10416653;28;19921;-68
2022/05/19 01:04:39;;;;;;;;;;;;;;;17.79;100.00;101669.69;10415837;28;20300;-68
2022/05/19 01:09:42;;;;;;;;;;;;;;;17.88;100.00;101665.53;10415489;28;19928;-68
2022/05/19 01:14:44;;;;;;;;;;;;;;;17.86;100.00;101651.53;10415916;28;19921;-68
2022/05/19 01:19:49;;;;;;;;;;;;;;;17.94;100.00;101655.31;10417104;28;19920;-68
2022/05/19 01:24:57;;;;;;;;;;;;;;;17.79;100.00;101648.50;10399390;28;19964;-68
2022/05/19 01:30:00;;;;;;;;;;;;;;;17.83;100.00;101652.59;10416606;28;19921;-68
2022/05/19 01:35:02;;;;;;;;;;;;;;;17.74;100.00;101643.53;10416483;28;19921;-68
2022/05/19 01:40:06;;;;;;;;;;;;;;;17.97;100.00;101635.69;10414794;28;19921;-68
2022/05/19 01:45:27;;;;;;;;;;;;;;;18.08;100.00;101626.94;10414278;28;19921;-68
2022/05/19 01:50:33;;;;;;;;;;;;;;;17.88;100.00;101612.53;10415995;28;19964;-68
2022/05/19 01:55:54;;;;;;;;;;;;;;;17.97;100.00;101609.19;10414950;28;19928;-68
2022/05/19 02:00:57;;;;;;;;;;;;;;;17.94;100.00;101614.75;10415027;28;19943;-68
2022/05/19 02:06:08;;;;;;;;;;;;;;;17.86;100.00;101615.28;10414691;28;19921;-68
2022/05/19 02:11:11;;;;;;;;;;;;;;;17.93;100.00;101605.09;10414752;28;19921;-68
2022/05/19 02:16:13;;;;;;;;;;;;;;;17.62;100.00;101599.44;10413760;28;19983;-68
2022/05/19 02:21:16;;;;;;;;;;;;;;;17.55;100.00;101603.47;10415055;28;20328;-68
2022/05/19 02:26:18;;;;;;;;;;;;;;;17.30;100.00;101592.06;10415464;28;19925;-68
2022/05/19 02:31:20;;;;;;;;;;;;;;;17.38;100.00;101595.00;10415320;28;19928;-68
2022/05/19 02:36:23;;;;;;;;;;;;;;;17.81;100.00;101594.44;10415350;28;19975;-68
2022/05/19 02:41:25;;;;;;;;;;;;;;;18.12;100.00;101589.50;10415284;28;19921;-68
2022/05/19 02:46:27;;;;;;;;;;;;;;;18.00;100.00;101588.63;10414120;28;19928;-68
2022/05/19 02:51:30;;;;;;;;;;;;;;;17.84;100.00;101590.72;10417475;28;19921;-68
2022/05/19 02:56:32;;;;;;;;;;;;;;;18.07;100.00;101593.44;10422400;28;19975;-68
2022/05/19 03:01:34;;;;;;;;;;;;;;;18.37;100.00;101592.88;10422446;28;19921;-68
2022/05/19 03:06:37;;;;;;;;;;;;;;;18.27;100.00;101598.03;10422010;28;19921;-68
2022/05/19 03:11:39;;;;;;;;;;;;;;;18.22;100.00;101602.84;10421477;28;20357;-68
2022/05/19 03:16:42;;;;;;;;;;;;;;;18.23;100.00;101607.19;10421892;28;19921;-68
2022/05/19 03:21:45;;;;;;;;;;;;;;;18.51;100.00;101603.25;10421517;28;19932;-68
2022/05/19 03:26:47;;;;;;;;;;;;;;;18.30;100.00;101605.75;10421439;28;19921;-68
2022/05/19 03:31:51;;;;;;;;;;;;;;;18.58;100.00;101608.94;10420694;28;20277;-68
2022/05/19 03:36:54;;;;;;;;;;;;;;;18.58;100.00;101632.78;10419705;28;19925;-68
2022/05/19 03:41:56;;;;;;;;;;;;;;;18.34;100.00;101747.72;10418740;28;20265;-68
2022/05/19 03:46:58;;;;;;;;;;;;;;;19.73;88.77;101739.56;10420082;28;20301;-69
2022/05/19 03:52:01;;;;;;;;;;;;;;;19.82;86.99;101719.41;10419745;28;19944;-69
2022/05/19 03:57:06;;;;;;;;;;;;;;;19.97;86.98;101727.94;10419711;28;19944;-68
2022/05/19 04:02:08;;;;;;;;;;;;;;;19.78;89.62;101736.59;10419612;28;19928;-68
2022/05/19 04:07:30;;;;;;;;;;;;;;;19.93;92.27;101737.97;10419343;28;19921;-68
2022/05/19 04:12:33;;;;;;;;;;;;;;;20.02;92.18;101744.34;10419638;28;19936;-68
2022/05/19 04:17:36;;;;;;;;;;;;;;;20.08;92.95;101748.34;10419443;28;20280;-69
2022/05/19 04:22:38;;;;;;;;;;;;;;;20.03;95.11;101748.69;10419299;28;19921;-68
2022/05/19 04:27:40;;;;;;;;;;;;;;;20.10;94.45;101741.91;10418977;28;19921;-68
2022/05/19 04:32:43;;;;;;;;;;;;;;;19.91;95.29;101747.06;10418249;28;20295;-68
2022/05/19 04:37:46;;;;;;;;;;;;;;;20.07;95.73;101749.28;10418786;28;19921;-68
2022/05/19 04:42:48;;;;;;;;;;;;;;;20.15;94.37;101737.03;10416467;28;19921;-68
2022/05/19 04:47:50;;;;;;;;;;;;;;;20.00;95.73;101735.66;10417735;28;19925;-69
2022/05/19 04:52:52;;;;;;;;;;;;;;;19.92;98.09;101735.44;10417927;28;19928;-68
2022/05/19 04:57:54;;;;;;;;;;;;;;;20.00;94.63;101731.19;10418116;28;19921;-68
2022/05/19 05:02:57;;;;;;;;;;;;;;;19.89;98.38;101738.34;10417611;28;19928;-68
2022/05/19 05:07:59;;;;;;;;;;;;;;;20.29;90.99;101727.06;10416765;28;20360;-68
2022/05/19 05:13:08;;;;;;;;;;;;;;;20.34;93.17;101722.19;10417337;28;19921;-68
2022/05/19 05:18:10;;;;;;;;;;;;;;;20.42;97.04;101731.25;10416512;28;19921;-68
2022/05/19 05:23:12;;;;;;;;;;;;;;;20.26;95.80;101744.13;10416009;28;20411;-68
2022/05/19 05:28:14;;;;;;;;;;;;;;;20.19;92.57;101737.63;10416228;28;19921;-68
2022/05/19 05:33:17;;;;;;;;;;;;;;;20.61;90.67;101721.69;10415916;28;19920;-68
2022/05/19 05:38:19;;;;;;;;;;;;;;;20.67;93.16;101742.47;10415941;28;19944;-68
2022/05/19 05:43:21;;;;;;;;;;;;;;;20.84;93.02;101743.69;10416059;28;19921;-68
2022/05/19 05:48:23;;;;;;;;;;;;;;;20.86;95.06;101732.91;10416006;28;19932;-68
2022/05/19 05:53:25;;;;;;;;;;;;;;;21.06;93.88;101747.16;10416187;28;19927;-68
2022/05/19 05:58:29;;;;;;;;;;;;;;;21.26;89.14;101734.75;10415823;28;19921;-68
2022/05/19 06:03:32;;;;;;;;;;;;;;;21.17;91.88;101716.94;10415337;28;20365;-68
2022/05/19 06:08:34;;;;;;;;;;;;;;;20.67;92.63;101675.13;10415923;28;19928;-69
2022/05/19 06:13:37;;;;;;;;;;;;;;;21.18;90.89;101692.81;10415356;28;19921;-69
2022/05/19 06:18:39;;;;;;;;;;;;;;;20.84;92.89;101692.28;10415104;28;20274;-69
2022/05/19 06:23:41;;;;;;;;;;;;;;;20.78;88.33;101691.84;10415613;28;19921;-69
2022/05/19 06:28:43;;;;;;;;;;;;;;;19.33;100.00;101649.84;10421781;28;19931;-67
2022/05/19 06:33:46;;;;;;;;;;;;;;;19.18;100.00;101656.41;10420245;28;20371;-68
2022/05/19 06:38:48;;;;;;;;;;;;;;;18.63;100.00;101627.97;10409608;28;19921;-66
2022/05/19 06:43:50;;;;;;;;;;;;;;;18.57;100.00;101522.38;10422216;28;19928;-65
2022/05/19 06:48:52;;;;;;;;;;;;;;;18.54;100.00;101603.03;10422763;28;19921;-65
2022/05/19 06:53:54;;;;;;;;;;;;;;;19.28;100.00;101628.16;10420602;28;19921;-66
2022/05/19 06:58:57;;;;;;;;;;;;;;;19.21;100.00;101670.28;10427860;23;19921;-62
2022/05/19 07:03:59;;;;;;;;;;;;;;;19.24;100.00;101656.75;10421903;28;19921;-62
2022/05/19 07:09:02;;;;;;;;;;;;;;;19.61;100.00;101629.84;10421762;28;19936;-64
2022/05/19 07:14:05;;;;;;;;;;;;;;;19.31;100.00;101618.13;10421356;28;19921;-64
2022/05/19 07:24:28;;;;;;;;;;;;;;;19.64;100.00;101634.91;10421275;28;19928;-64
2022/05/19 07:29:30;;;;;;;;;;;;;;;20.11;100.00;101641.75;10420864;28;19928;-65
2022/05/19 07:34:33;;;;;;;;;;;;;;;20.04;100.00;101642.25;10418428;28;19921;-65
2022/05/19 07:39:35;;;;;;;;;;;;;;;20.19;100.00;101640.13;10418965;28;19932;-64
2022/05/19 07:44:38;;;;;;;;;;;;;;;20.21;100.00;101646.13;10419793;28;19921;-68
2022/05/19 07:49:41;;;;;;;;;;;;;;;20.10;100.00;101640.06;10420550;28;19921;-67
2022/05/19 07:54:43;;;;;;;;;;;;;;;20.35;100.00;101613.03;10419415;28;20295;-67
2022/05/19 07:59:45;;;;;;;;;;;;;;;20.32;100.00;101607.16;10419670;28;19925;-68
2022/05/19 08:04:48;;;;;;;;;;;;;;;20.66;100.00;101615.75;10419627;28;19928;-66
2022/05/19 08:20:34;;;;;;;;;;;;;;;21.48;100.00;101643.16;10417449;28;19928;-65
2022/05/19 08:25:39;;;;;;;;;;;;;;;21.96;100.00;101633.47;10418382;28;19921;-67
2022/05/19 08:30:43;;;;;;;;;;;;;;;21.84;100.00;101627.44;10418774;28;19921;-65
2022/05/19 08:35:45;;;;;;;;;;;;;;;23.23;100.00;101619.66;10417296;28;19929;-65
2022/05/19 08:40:50;;;;;;;;;;;;;;;24.18;100.00;101603.94;10418634;28;19921;-65
2022/05/19 08:45:55;;;;;;;;;;;;;;;24.31;91.24;101596.31;10417741;28;19929;-65
2022/05/19 08:50:57;;;;;;;;;;;;;;;24.61;84.12;101586.09;10416904;28;19971;-64
2022/05/19 08:56:25;;;;;;;;;;;;;;;24.78;81.86;101589.66;10416683;28;19921;-64
2022/05/19 09:01:49;;;;;;;;;;;;;;;24.01;73.69;101590.47;10411975;28;19921;-64
2022/05/19 09:12:32;;;;;;;;;;;;;;;25.97;69.59;101593.84;10415668;28;20252;-64
2022/05/19 09:17:36;;;;;;;;;;;;;;;25.04;68.71;101595.78;10415425;28;20292;-64
2022/05/19 09:22:39;;;;;;;;;;;;;;;25.59;68.75;101593.53;10415810;28;19928;-64
2022/05/19 09:27:42;;;;;;;;;;;;;;;25.71;64.78;101578.78;10416854;28;19927;-64
2022/05/19 09:32:48;;;;;;;;;;;;;;;26.48;62.23;101582.81;10415657;28;19928;-64
2022/05/19 09:38:05;;;;;;;;;;;;;;;26.42;62.51;101578.97;10414696;28;19928;-64
2022/05/19 09:43:15;;;;;;;;;;;;;;;27.28;65.51;101580.88;10415656;28;20364;-64
2022/05/19 09:48:25;;;;;;;;;;;;;;;27.29;59.50;101577.22;10398268;28;20368;-65
2022/05/19 09:53:28;;;;;;;;;;;;;;;26.71;58.25;101572.16;10416218;28;19927;-65
2022/05/19 09:58:31;;;;;;;;;;;;;;;27.06;56.95;101568.09;10415413;28;19921;-65
2022/05/19 10:03:42;;;;;;;;;;;;;;;27.72;63.13;101574.81;10415473;28;19921;-65
2022/05/19 10:08:45;;;;;;;;;;;;;;;27.06;58.58;101569.94;10414833;28;19921;-65
2022/05/19 10:13:49;;;;;;;;;;;;;;;27.76;61.55;101570.75;10414717;28;19921;-65
2022/05/19 10:18:57;;;;;;;;;;;;;;;27.59;59.10;101562.00;10398268;28;19921;-65
2022/05/19 10:24:05;;;;;;;;;;;;;;;27.36;59.49;101559.34;10415582;28;19921;-65
2022/05/19 10:34:53;;;;;;;;;;;;;;;27.04;59.01;101512.84;10414778;28;20387;-65
2022/05/19 10:40:05;;;;;;;;;;;;;;;27.88;59.20;101506.56;10414164;28;19931;-65
2022/05/19 10:45:07;;;;;;;;;;;;;;;27.70;60.55;101504.22;10415201;28;20016;-65
2022/05/19 10:50:15;;;;;;;;;;;;;;;27.88;64.48;101490.44;10414555;28;19928;-65
2022/05/19 10:55:20;;;;;;;;;;;;;;;26.97;58.44;101495.78;10415066;28;19932;-65
2022/05/19 11:00:35;;;;;;;;;;;;;;;28.06;62.47;101499.00;10413037;28;19921;-65
2022/05/19 11:05:58;;;;;;;;;;;;;;;28.45;59.38;101503.19;10414028;28;19928;-65
2022/05/19 11:11:00;;;;;;;;;;;;;;;28.02;57.25;101489.59;10413942;28;20372;-65
2022/05/19 11:16:02;;;;;;;;;;;;;;;27.72;61.46;101481.53;10419064;28;20348;-65
2022/05/19 11:21:06;;;;;;;;;;;;;;;27.08;63.03;101481.09;10421352;28;19921;-65
2022/05/19 11:26:23;;;;;;;;;;;;;;;27.45;63.59;101466.00;10420963;28;20291;-65
2022/05/19 11:31:49;;;;;;;;;;;;;;;27.52;65.62;101458.84;10420885;28;19932;-65
2022/05/19 11:36:57;;;;;;;;;;;;;;;26.95;64.84;101454.81;10415155;28;19925;-65
2022/05/19 11:42:10;;;;;;;;;;;;;;;25.53;74.58;101493.16;10421087;28;19925;-65
2022/05/19 11:58:24;;;;;;;;;;;;;;;25.13;87.76;101451.13;10418910;28;19928;-65
2022/05/19 12:03:46;;;;;;;;;;;;;;;24.80;92.39;101433.22;10420483;28;19921;-65
2022/05/19 12:08:48;;;;;;;;;;;;;;;24.34;97.72;101447.97;10420084;28;19925;-65
2022/05/19 12:13:52;;;;;;;;;;;;;;;23.98;100.00;101475.75;10419241;28;20373;-65
2022/05/19 12:19:00;;;;;;;;;;;;;;;21.21;96.27;101799.06;10419657;28;19921;-62
2022/05/19 12:24:03;;;;;;;;;;;;;;;17.60;100.00;101933.19;10418315;28;20280;-61
2022/05/19 12:29:24;;;;;;;;;;;;;;;-145.66;100.00;59599.19;10418632;28;20292;-61
2022/05/19 12:34:28;;;;;;;;;;;;;;;-145.66;100.00;59599.19;10418494;28;20364;-64
2022/05/19 12:39:50;;;;;;;;;;;;;;;-145.66;100.00;59599.19;10418901;28;19928;-65
2022/05/19 12:45:49;;;;;;;;;;;;;;;-145.66;100.00;59599.19;10417573;28;19921;-66
2022/05/19 12:51:06;;;;;;;;;;;;;;;-145.66;100.00;59599.19;10417245;28;19922;-64
2022/05/19 12:56:08;;;;;;;;;;;;;;;-145.66;100.00;59599.19;10417451;28;19948;-64
2022/05/19 13:01:21;;;;;;;;;;;;;;;-145.66;100.00;59599.19;10416904;28;19921;-64
2022/05/19 13:06:24;;;;;;;;;;;;;;;-145.66;100.00;59599.19;10416601;28;19921;-65
2022/05/19 13:11:33;;;;;;;;;;;;;;;-145.66;100.00;59599.19;10416496;28;19925;-65
2022/05/19 13:16:37;;;;;;;;;;;;;;;-145.66;100.00;59599.19;10417504;28;20000;-65
2022/05/19 13:21:46;;;;;;;;;;;;;;;-145.66;100.00;59599.19;10416696;28;20367;-67
2022/05/19 13:30:20;;;;;;;;;;;;;;;-145.66;100.00;59599.19;10417029;28;19921;-67
2022/05/19 13:32:13;;;;;;;;;;;;;;;-145.66;100.00;59599.19;10416380;28;20384;-66
2022/05/19 13:37:29;;;;;;;;;;;;;;;-145.66;100.00;59599.19;10416039;28;19925;-66
2022/05/19 13:42:32;;;;;;;;;;;;;;;-145.66;100.00;59599.19;10415968;28;20394;-66
2022/05/19 13:47:34;;;;;;;;;;;;;;;-145.66;100.00;59599.19;10415259;28;19929;-68
2022/05/19 13:52:39;;;;;;;;;;;;;;;-145.66;100.00;59599.19;10415688;28;20296;-67
2022/05/19 13:57:48;;;;;;;;;;;;;;;-145.66;100.00;59599.19;10414243;28;19921;-67
2022/05/19 14:02:51;;;;;;;;;;;;;;;-145.66;100.00;59599.19;10416143;28;19921;-65
2022/05/19 14:07:53;;;;;;;;;;;;;;;-145.66;100.00;59599.19;10414161;28;20277;-64
2022/05/19 14:13:10;;;;;;;;;;;;;;;-145.66;100.00;59599.19;10415983;28;19921;-64
2022/05/19 14:18:12;;;;;;;;;;;;;;;-145.66;100.00;59599.19;10415907;28;20398;-65
2022/05/19 14:23:21;;;;;;;;;;;;;;;-145.66;100.00;59599.19;10414616;28;19921;-65
2022/05/19 14:28:30;;;;;;;;;;;;;;;-145.66;100.00;59599.19;10414016;28;20368;-65
2022/05/19 14:34:36;;;;;;;;;;;;;;;-145.66;100.00;59599.19;10415542;28;19921;-66
2022/05/19 14:47:10;;;;;;;;;;;;;;;-145.66;100.00;59599.19;10414458;28;19921;-68
2022/05/19 14:53:12;;;;;;;;;;;;;;;-145.66;100.00;59599.19;10422491;28;19928;-67
2022/05/19 14:59:14;;;;;;;;;;;;;;;-145.66;100.00;59599.19;10421296;28;19921;-67
2022/05/19 15:05:15;;;;;;;;;;;;;;;-145.66;100.00;59599.19;10421465;28;19925;-67
2022/05/19 15:11:16;;;;;;;;;;;;;;;-145.66;100.00;59599.19;10421743;28;19928;-67
2022/05/19 15:17:17;;;;;;;;;;;;;;;-145.66;100.00;59599.19;10422188;28;19921;-67
2022/05/19 15:23:18;;;;;;;;;;;;;;;-145.66;100.00;59599.19;10421285;28;19943;-67
2022/05/19 15:29:19;;;;;;;;;;;;;;;-145.66;100.00;59599.19;10421055;28;19944;-67
2022/05/19 15:35:20;;;;;;;;;;;;;;;-145.66;100.00;59599.19;10420856;28;19940;-67
2022/05/19 15:41:22;;;;;;;;;;;;;;;-145.66;100.00;59599.19;10420645;28;19943;-67
2022/05/19 15:47:26;;;;;;;;;;;;;;;-145.66;100.00;59599.19;10420924;28;19936;-67
2022/05/19 15:53:27;;;;;;;;;;;;;;;-145.66;100.00;59599.19;10420434;28;20557;-67
2022/05/19 15:59:28;;;;;;;;;;;;;;;-145.66;100.00;59599.19;10418924;28;20284;-67
2022/05/19 16:05:29;;;;;;;;;;;;;;;-145.66;100.00;59599.19;10420283;28;19921;-67
2022/05/19 16:11:30;;;;;;;;;;;;;;;-145.66;100.00;59599.19;10420088;28;19921;-67
2022/05/19 16:16:33;;;;;;;;;;;;;;;-145.66;100.00;59599.19;10419894;28;19970;-67
2022/05/19 16:22:33;;;;;;;;;;;;;;;-145.66;100.00;59599.19;10419711;28;19921;-67
2022/05/19 16:28:34;;;;;;;;;;;;;;;-145.66;100.00;59599.19;10419381;28;19928;-67
2022/05/19 16:33:36;;;;;;;;;;;;;;;-145.66;100.00;59599.19;10419185;28;19925;-67
2022/05/19 16:38:39;;;;;;;;;;;;;;;-145.66;100.00;59599.19;10418383;28;19943;-67
2022/05/19 16:43:41;;;;;;;;;;;;;;;-145.66;100.00;59599.19;10418746;28;19921;-67
2022/05/19 16:48:45;;;;;;;;;;;;;;;-145.66;100.00;59599.19;10418527;28;19921;-67
2022/05/19 16:59:08;;;;;;;;;;;;;;;-145.66;100.00;59599.19;10417579;28;19929;-67
2022/05/19 17:04:10;;;;;;;;;;;;;;;-145.66;100.00;59599.19;10417332;28;19968;-67
2022/05/19 17:09:13;;;;;;;;;;;;;;;-145.66;100.00;59599.19;10417692;28;19928;-67
2022/05/19 17:14:15;;;;;;;;;;;;;;;-145.66;100.00;59599.19;10416418;28;19921;-67
2022/05/19 17:19:17;;;;;;;;;;;;;;;-145.66;100.00;59599.19;10417297;28;19932;-67
2022/05/19 17:24:20;;;;;;;;;;;;;;;-145.66;100.00;59599.19;10416581;28;20356;-67
2022/05/19 17:29:22;;;;;;;;;;;;;;;-145.66;100.00;59599.19;10416378;28;19921;-68
2022/05/19 17:34:24;;;;;;;;;;;;;;;-145.66;100.00;59599.19;10416243;28;19920;-68
2022/05/19 17:39:29;;;;;;;;;;;;;;;-145.66;100.00;59599.19;10416113;28;19944;-68
2022/05/19 17:44:32;;;;;;;;;;;;;;;-145.66;100.00;59599.19;10416600;28;19921;-67
2022/05/19 17:49:35;;;;;;;;;;;;;;;-145.66;100.00;59599.19;10415758;28;19921;-68
2022/05/19 17:54:37;;;;;;;;;;;;;;;-145.66;100.00;59599.19;10416283;28;19925;-68
2022/05/19 17:59:39;;;;;;;;;;;;;;;-145.66;100.00;59599.19;10415735;28;20008;-68
2022/05/19 18:04:41;;;;;;;;;;;;;;;-145.66;100.00;59599.19;10416088;28;19921;-67
2022/05/19 18:09:44;;;;;;;;;;;;;;;-145.66;100.00;59599.19;10414206;28;20277;-68
2022/05/19 18:20:07;;;;;;;;;;;;;;;-145.66;100.00;59599.19;10415897;28;19932;-68
2022/05/19 18:25:09;;;;;;;;;;;;;;;-145.66;100.00;59599.19;10422900;28;19921;-68
2022/05/19 18:30:12;;;;;;;;;;;;;;;-145.66;100.00;59599.19;10422169;28;20364;-68
2022/05/19 18:35:15;;;;;;;;;;;;;;;-145.66;100.00;59599.19;10422631;28;19928;-67
2022/05/19 18:45:38;;;;;;;;;;;;;;;-145.66;100.00;59599.19;10422804;28;19921;-68
2022/05/19 18:50:40;;;;;;;;;;;;;;;-145.66;100.00;59599.19;10423211;28;19927;-68
2022/05/19 18:55:42;;;;;;;;;;;;;;;-145.66;100.00;59599.19;10423003;28;19925;-68
2022/05/19 19:00:45;;;;;;;;;;;;;;;-145.66;100.00;59599.19;10422036;28;20385;-68
2022/05/19 19:05:47;;;;;;;;;;;;;;;-145.66;100.00;59599.19;10421875;28;19925;-68
2022/05/19 19:10:49;;;;;;;;;;;;;;;-145.66;100.00;59599.19;10427926;22;19926;-61
2022/05/19 19:15:52;;;;;;;;;;;;;;;-145.66;100.00;59599.19;10422293;28;19921;-61
2022/05/19 19:20:54;;;;;;;;;;;;;;;-145.66;100.00;59599.19;10421451;28;19963;-61
2022/05/19 19:25:56;;;;;;;;;;;;;;;-145.66;100.00;59599.19;10421769;28;19920;-61
2022/05/19 19:30:59;;;;;;;;;;;;;;;-145.66;100.00;59599.19;10404315;28;19932;-61
2022/05/19 19:36:01;;;;;;;;;;;;;;;-145.66;100.00;59599.19;10420267;28;19920;-61
2022/05/19 19:41:03;;;;;;;;;;;;;;;-145.66;100.00;59599.19;10421347;28;19921;-61
2022/05/19 19:46:05;;;;;;;;;;;;;;;-145.66;100.00;59599.19;10421042;28;19921;-62
2022/05/19 19:56:28;;;;;;;;;;;;;;;-145.66;100.00;59599.19;10420115;28;19948;-61
2022/05/19 20:01:35;;;;;;;;;;;;;;;-145.66;100.00;59599.19;10420520;28;19927;-61
2022/05/19 20:06:37;;;;;;;;;;;;;;;-145.66;100.00;59599.19;10420278;28;19921;-61
2022/05/19 20:11:40;;;;;;;;;;;;;;;-145.66;100.00;59599.19;10419330;28;19928;-61
2022/05/19 20:16:42;;;;;;;;;;;;;;;-145.66;100.00;59599.19;10419929;28;19921;-61
2022/05/19 20:21:45;;;;;;;;;;;;;;;-145.66;100.00;59599.19;10419094;28;20316;-61
2022/05/19 20:26:47;;;;;;;;;;;;;;;-145.66;100.00;59599.19;10419416;28;19921;-61
2022/05/19 20:31:50;;;;;;;;;;;;;;;-145.66;100.00;59599.19;10419242;28;19928;-61
2022/05/19 20:36:52;;;;;;;;;;;;;;;-145.66;100.00;59599.19;10419091;28;19921;-61
2022/05/19 20:41:54;;;;;;;;;;;;;;;-145.66;100.00;59599.19;10418848;28;19927;-61
2022/05/19 20:46:57;;;;;;;;;;;;;;;-145.66;100.00;59599.19;10418272;28;19928;-61
2022/05/19 20:52:00;;;;;;;;;;;;;;;-145.66;100.00;59599.19;10418841;28;19967;-61
2022/05/19 20:57:03;;;;;;;;;;;;;;;-145.66;100.00;59599.19;10416653;28;20271;-61
2022/05/19 21:02:06;;;;;;;;;;;;;;;-145.66;100.00;59599.19;10418105;28;19921;-61
2022/05/19 21:07:09;;;;;;;;;;;;;;;-145.66;100.00;59599.19;10417290;28;19995;-61
2022/05/19 21:12:11;;;;;;;;;;;;;;;-145.66;100.00;59599.19;10417413;28;19925;-61
2022/05/19 21:17:14;;;;;;;;;;;;;;;-145.66;100.00;59599.19;10416942;28;20379;-61
2022/05/19 21:22:17;;;;;;;;;;;;;;;-145.66;100.00;59599.19;10417298;28;19921;-61
2022/05/19 21:27:19;;;;;;;;;;;;;;;-145.66;100.00;59599.19;10417134;28;19931;-61
2022/05/19 21:32:21;;;;;;;;;;;;;;;-145.66;100.00;59599.19;10417272;28;19932;-61
2022/05/19 21:37:24;;;;;;;;;;;;;;;-145.66;100.00;59599.19;10416876;28;19927;-61
2022/05/19 21:42:26;;;;;;;;;;;;;;;-145.66;100.00;59599.19;10416720;28;19921;-61
2022/05/19 21:47:30;;;;;;;;;;;;;;;-145.66;100.00;59599.19;10416522;28;19956;-61
2022/05/19 21:57:55;;;;;;;;;;;;;;;-145.66;100.00;59599.19;10415043;28;20376;-61
2022/05/19 22:03:18;;;;;;;;;;;;;;;-145.66;100.00;59599.19;10415033;28;19925;-60
2022/05/19 22:08:20;;;;;;;;;;;;;;;-145.66;100.00;59599.19;10414258;28;20360;-61
2022/05/19 22:13:23;;;;;;;;;;;;;;;-145.66;100.00;59599.19;10415197;28;19944;-61
2022/05/19 22:18:25;;;;;;;;;;;;;;;-145.66;100.00;59599.19;10415889;28;19928;-61
2022/05/19 22:23:27;;;;;;;;;;;;;;;-145.66;100.00;59599.19;10415741;28;19927;-61
2022/05/19 22:28:30;;;;;;;;;;;;;;;-145.66;100.00;59599.19;10415695;28;19921;-61
2022/05/19 22:33:33;;;;;;;;;;;;;;;-145.66;100.00;59599.19;10413800;28;19928;-61
2022/05/19 22:38:36;;;;;;;;;;;;;;;-145.66;100.00;59599.19;10413743;28;19928;-61
2022/05/19 22:43:38;;;;;;;;;;;;;;;-145.66;100.00;59599.19;10415316;28;19925;-61
2022/05/19 22:48:41;;;;;;;;;;;;;;;-145.66;100.00;59599.19;10414063;28;19928;-61
2022/05/19 22:53:43;;;;;;;;;;;;;;;-145.66;100.00;59599.19;10397308;28;19921;-61
2022/05/19 22:58:46;;;;;;;;;;;;;;;-145.66;100.00;59599.19;10414520;28;20363;-61
2022/05/19 23:03:48;;;;;;;;;;;;;;;-145.66;100.00;59599.19;10414442;28;20390;-61
2022/05/19 23:08:50;;;;;;;;;;;;;;;-145.66;100.00;59599.19;10418074;28;19928;-61
2022/05/19 23:13:52;;;;;;;;;;;;;;;-145.66;100.00;59599.19;10421757;28;19927;-60
2022/05/19 23:18:55;;;;;;;;;;;;;;;-145.66;100.00;59599.19;10421548;28;19921;-61
2022/05/19 23:23:57;;;;;;;;;;;;;;;-145.66;100.00;59599.19;10420224;28;20348;-61
2022/05/19 23:28:59;;;;;;;;;;;;;;;-145.66;100.00;59599.19;10421752;28;19940;-61
2022/05/19 23:34:01;;;;;;;;;;;;;;;-145.66;100.00;59599.19;10419808;28;20375;-61
2022/05/19 23:39:04;;;;;;;;;;;;;;;-145.66;100.00;59599.19;10421407;28;19935;-61
2022/05/19 23:44:08;;;;;;;;;;;;;;;-145.66;100.00;59599.19;10420564;28;19928;-61
2022/05/19 23:49:10;;;;;;;;;;;;;;;-145.66;100.00;59599.19;10420295;28;19971;-61
2022/05/19 23:54:13;;;;;;;;;;;;;;;-145.66;100.00;59599.19;10420182;28;20360;-61
2022/05/19 23:59:15;;;;;;;;;;;;;;;-145.66;100.00;59599.19;10418875;28;20368;-61
